Airport View

Enter AWOS ICAO identifier for current METAR.

ex. KFNL

KONO 261153Z AUTO 26005KT 10SM CLR 15/07 A2984 RMK AO2 SLP091 T01500067 10189 20144 51001

26 Jun 2019 12:29

Frequency: 135.275

Phone: 541-889-7388

Other Area AWOS: KEUL - KMAN - KBOI - KBKE

TAF KBOI 261120Z 2612/2712 26005KT P6SM BKN100 FM262000 23015G25KT P6SM SCT100 FM270400 30007KT P6SM SCT100